sensor_id;sensor_type;location;lat;lon;timestamp;P1;durP1;ratioP1;P2;durP2;ratioP2
48554;SDS011;34336;48.270;16.716;2022-09-12T00:01:25;7.63;;;6.82;;
48554;SDS011;34336;48.270;16.716;2022-09-12T00:03:54;10.02;;;6.55;;
48554;SDS011;34336;48.270;16.716;2022-09-12T00:06:24;9.43;;;6.90;;
48554;SDS011;34336;48.270;16.716;2022-09-12T00:08:54;8.98;;;7.00;;
48554;SDS011;34336;48.270;16.716;2022-09-12T00:11:22;8.77;;;6.95;;
48554;SDS011;34336;48.270;16.716;2022-09-12T00:13:50;11.07;;;7.28;;
48554;SDS011;34336;48.270;16.716;2022-09-12T00:16:21;9.32;;;6.90;;
48554;SDS011;34336;48.270;16.716;2022-09-12T00:18:50;8.07;;;7.18;;
48554;SDS011;34336;48.270;16.716;2022-09-12T00:21:19;8.32;;;6.80;;
48554;SDS011;34336;48.270;16.716;2022-09-12T00:23:47;9.07;;;7.38;;
48554;SDS011;34336;48.270;16.716;2022-09-12T00:26:14;9.63;;;6.82;;
48554;SDS011;34336;48.270;16.716;2022-09-12T00:28:42;9.88;;;7.47;;
48554;SDS011;34336;48.270;16.716;2022-09-12T00:31:11;9.57;;;7.03;;
48554;SDS011;34336;48.270;16.716;2022-09-12T00:33:40;8.82;;;7.30;;
48554;SDS011;34336;48.270;16.716;2022-09-12T00:36:09;8.60;;;7.55;;
48554;SDS011;34336;48.270;16.716;2022-09-12T00:38:37;9.77;;;7.43;;
48554;SDS011;34336;48.270;16.716;2022-09-12T00:41:10;10.23;;;7.47;;
48554;SDS011;34336;48.270;16.716;2022-09-12T00:43:42;8.15;;;6.55;;
48554;SDS011;34336;48.270;16.716;2022-09-12T00:46:30;8.00;;;7.15;;
48554;SDS011;34336;48.270;16.716;2022-09-12T00:49:08;9.18;;;6.65;;
48554;SDS011;34336;48.270;16.716;2022-09-12T00:51:38;9.32;;;7.45;;
48554;SDS011;34336;48.270;16.716;2022-09-12T00:54:07;9.02;;;7.63;;
48554;SDS011;34336;48.270;16.716;2022-09-12T00:56:38;8.95;;;7.00;;
48554;SDS011;34336;48.270;16.716;2022-09-12T00:59:15;10.02;;;6.90;;
48554;SDS011;34336;48.270;16.716;2022-09-12T01:01:45;9.23;;;7.13;;
48554;SDS011;34336;48.270;16.716;2022-09-12T01:04:15;9.60;;;6.30;;
48554;SDS011;34336;48.270;16.716;2022-09-12T01:06:45;8.20;;;7.32;;
48554;SDS011;34336;48.270;16.716;2022-09-12T01:09:15;9.38;;;7.15;;
48554;SDS011;34336;48.270;16.716;2022-09-12T01:11:44;9.45;;;7.03;;
48554;SDS011;34336;48.270;16.716;2022-09-12T01:14:14;8.05;;;7.07;;
48554;SDS011;34336;48.270;16.716;2022-09-12T01:16:43;8.05;;;7.25;;
48554;SDS011;34336;48.270;16.716;2022-09-12T01:27:43;8.00;;;6.85;;
48554;SDS011;34336;48.270;16.716;2022-09-12T01:30:47;8.40;;;6.85;;
48554;SDS011;34336;48.270;16.716;2022-09-12T01:39:02;8.93;;;6.10;;
48554;SDS011;34336;48.270;16.716;2022-09-12T01:44:13;7.15;;;5.70;;
48554;SDS011;34336;48.270;16.716;2022-09-12T01:47:06;7.78;;;6.13;;
48554;SDS011;34336;48.270;16.716;2022-09-12T01:52:41;9.32;;;6.65;;
48554;SDS011;34336;48.270;16.716;2022-09-12T01:55:17;7.43;;;6.45;;
48554;SDS011;34336;48.270;16.716;2022-09-12T01:57:53;9.18;;;5.63;;
48554;SDS011;34336;48.270;16.716;2022-09-12T02:00:22;8.52;;;6.20;;
48554;SDS011;34336;48.270;16.716;2022-09-12T02:03:00;7.05;;;5.70;;
48554;SDS011;34336;48.270;16.716;2022-09-12T02:05:36;7.70;;;5.78;;
48554;SDS011;34336;48.270;16.716;2022-09-12T02:08:09;7.53;;;5.85;;
48554;SDS011;34336;48.270;16.716;2022-09-12T02:10:44;7.28;;;6.57;;
48554;SDS011;34336;48.270;16.716;2022-09-12T02:16:04;6.90;;;6.20;;
48554;SDS011;34336;48.270;16.716;2022-09-12T02:18:54;8.32;;;6.75;;
48554;SDS011;34336;48.270;16.716;2022-09-12T02:21:25;7.53;;;6.30;;
48554;SDS011;34336;48.270;16.716;2022-09-12T02:23:55;7.90;;;6.05;;
48554;SDS011;34336;48.270;16.716;2022-09-12T02:26:26;7.70;;;6.13;;
48554;SDS011;34336;48.270;16.716;2022-09-12T02:28:57;7.45;;;6.20;;
48554;SDS011;34336;48.270;16.716;2022-09-12T02:37:20;6.43;;;5.68;;
48554;SDS011;34336;48.270;16.716;2022-09-12T02:39:57;8.45;;;6.22;;
48554;SDS011;34336;48.270;16.716;2022-09-12T02:42:25;6.25;;;5.65;;
48554;SDS011;34336;48.270;16.716;2022-09-12T02:44:53;7.10;;;5.78;;
48554;SDS011;34336;48.270;16.716;2022-09-12T02:47:24;6.93;;;5.78;;
48554;SDS011;34336;48.270;16.716;2022-09-12T02:49:55;7.22;;;6.43;;
48554;SDS011;34336;48.270;16.716;2022-09-12T02:52:22;8.05;;;6.22;;
48554;SDS011;34336;48.270;16.716;2022-09-12T02:54:50;8.07;;;5.72;;
48554;SDS011;34336;48.270;16.716;2022-09-12T02:57:19;7.15;;;6.40;;
48554;SDS011;34336;48.270;16.716;2022-09-12T02:59:49;7.97;;;6.38;;
48554;SDS011;34336;48.270;16.716;2022-09-12T03:16:02;7.18;;;6.45;;
48554;SDS011;34336;48.270;16.716;2022-09-12T03:24:43;7.68;;;6.78;;
48554;SDS011;34336;48.270;16.716;2022-09-12T03:27:26;8.52;;;7.43;;
48554;SDS011;34336;48.270;16.716;2022-09-12T03:30:05;8.73;;;7.70;;
48554;SDS011;34336;48.270;16.716;2022-09-12T03:32:44;9.63;;;8.00;;
48554;SDS011;34336;48.270;16.716;2022-09-12T03:35:12;9.15;;;7.28;;
48554;SDS011;34336;48.270;16.716;2022-09-12T03:37:46;10.50;;;8.05;;
48554;SDS011;34336;48.270;16.716;2022-09-12T03:40:14;9.38;;;8.25;;
48554;SDS011;34336;48.270;16.716;2022-09-12T03:42:41;9.55;;;8.23;;
48554;SDS011;34336;48.270;16.716;2022-09-12T03:45:08;8.98;;;8.07;;
48554;SDS011;34336;48.270;16.716;2022-09-12T03:47:35;9.15;;;7.03;;
48554;SDS011;34336;48.270;16.716;2022-09-12T03:50:03;10.00;;;8.40;;
48554;SDS011;34336;48.270;16.716;2022-09-12T03:52:30;10.25;;;8.45;;
48554;SDS011;34336;48.270;16.716;2022-09-12T03:54:57;9.18;;;7.65;;
48554;SDS011;34336;48.270;16.716;2022-09-12T03:57:24;11.07;;;8.10;;
48554;SDS011;34336;48.270;16.716;2022-09-12T03:59:51;9.25;;;7.95;;
48554;SDS011;34336;48.270;16.716;2022-09-12T04:02:17;9.02;;;7.20;;
48554;SDS011;34336;48.270;16.716;2022-09-12T04:04:44;8.68;;;7.55;;
48554;SDS011;34336;48.270;16.716;2022-09-12T04:07:14;9.82;;;7.75;;
48554;SDS011;34336;48.270;16.716;2022-09-12T04:09:41;9.30;;;7.40;;
48554;SDS011;34336;48.270;16.716;2022-09-12T04:12:08;9.35;;;7.63;;
48554;SDS011;34336;48.270;16.716;2022-09-12T04:14:35;9.57;;;7.68;;
48554;SDS011;34336;48.270;16.716;2022-09-12T04:17:01;9.90;;;7.63;;
48554;SDS011;34336;48.270;16.716;2022-09-12T04:19:28;9.40;;;7.25;;
48554;SDS011;34336;48.270;16.716;2022-09-12T04:21:55;8.18;;;7.03;;
48554;SDS011;34336;48.270;16.716;2022-09-12T04:24:22;10.07;;;7.20;;
48554;SDS011;34336;48.270;16.716;2022-09-12T04:26:49;10.85;;;7.90;;
48554;SDS011;34336;48.270;16.716;2022-09-12T04:29:16;9.00;;;8.07;;
48554;SDS011;34336;48.270;16.716;2022-09-12T04:31:42;9.85;;;7.63;;
48554;SDS011;34336;48.270;16.716;2022-09-12T04:34:09;8.18;;;7.38;;
48554;SDS011;34336;48.270;16.716;2022-09-12T04:36:36;8.63;;;7.72;;
48554;SDS011;34336;48.270;16.716;2022-09-12T04:39:03;44.45;;;37.13;;
48554;SDS011;34336;48.270;16.716;2022-09-12T04:41:32;13.20;;;10.70;;
48554;SDS011;34336;48.270;16.716;2022-09-12T04:44:02;10.82;;;8.85;;
48554;SDS011;34336;48.270;16.716;2022-09-12T04:46:33;8.90;;;7.32;;
48554;SDS011;34336;48.270;16.716;2022-09-12T04:49:02;9.90;;;8.05;;
48554;SDS011;34336;48.270;16.716;2022-09-12T04:51:30;23.58;;;17.80;;
48554;SDS011;34336;48.270;16.716;2022-09-12T04:54:00;9.85;;;7.93;;
48554;SDS011;34336;48.270;16.716;2022-09-12T04:56:29;11.13;;;9.55;;
48554;SDS011;34336;48.270;16.716;2022-09-12T04:58:56;7.57;;;6.55;;
48554;SDS011;34336;48.270;16.716;2022-09-12T05:01:24;7.63;;;6.00;;
48554;SDS011;34336;48.270;16.716;2022-09-12T05:03:53;7.65;;;6.07;;
48554;SDS011;34336;48.270;16.716;2022-09-12T05:06:22;7.50;;;5.97;;
48554;SDS011;34336;48.270;16.716;2022-09-12T05:08:51;9.27;;;7.20;;
48554;SDS011;34336;48.270;16.716;2022-09-12T05:11:19;7.10;;;6.40;;
48554;SDS011;34336;48.270;16.716;2022-09-12T05:13:52;6.85;;;6.15;;
48554;SDS011;34336;48.270;16.716;2022-09-12T05:16:19;8.07;;;6.90;;
48554;SDS011;34336;48.270;16.716;2022-09-12T05:18:47;8.82;;;7.10;;
48554;SDS011;34336;48.270;16.716;2022-09-12T05:21:16;9.25;;;8.02;;
48554;SDS011;34336;48.270;16.716;2022-09-12T05:23:45;9.55;;;8.15;;
48554;SDS011;34336;48.270;16.716;2022-09-12T05:26:15;8.80;;;7.90;;
48554;SDS011;34336;48.270;16.716;2022-09-12T05:28:42;10.82;;;8.25;;
48554;SDS011;34336;48.270;16.716;2022-09-12T05:31:10;11.10;;;9.43;;
48554;SDS011;34336;48.270;16.716;2022-09-12T05:33:39;11.07;;;9.40;;
48554;SDS011;34336;48.270;16.716;2022-09-12T05:36:09;11.57;;;9.38;;
48554;SDS011;34336;48.270;16.716;2022-09-12T05:38:38;9.80;;;8.75;;
48554;SDS011;34336;48.270;16.716;2022-09-12T05:41:13;10.02;;;8.18;;
48554;SDS011;34336;48.270;16.716;2022-09-12T05:43:46;12.43;;;9.52;;
48554;SDS011;34336;48.270;16.716;2022-09-12T05:46:17;10.73;;;8.90;;
48554;SDS011;34336;48.270;16.716;2022-09-12T05:48:46;10.25;;;8.98;;
48554;SDS011;34336;48.270;16.716;2022-09-12T05:51:21;10.45;;;9.35;;
48554;SDS011;34336;48.270;16.716;2022-09-12T05:53:50;12.57;;;9.73;;
48554;SDS011;34336;48.270;16.716;2022-09-12T05:56:23;12.25;;;9.35;;
48554;SDS011;34336;48.270;16.716;2022-09-12T05:59:05;11.93;;;9.60;;
48554;SDS011;34336;48.270;16.716;2022-09-12T06:01:38;11.35;;;8.77;;
48554;SDS011;34336;48.270;16.716;2022-09-12T06:04:05;11.13;;;8.63;;
48554;SDS011;34336;48.270;16.716;2022-09-12T06:06:40;11.23;;;8.75;;
48554;SDS011;34336;48.270;16.716;2022-09-12T06:09:11;11.10;;;9.23;;
48554;SDS011;34336;48.270;16.716;2022-09-12T06:11:39;12.05;;;9.13;;
48554;SDS011;34336;48.270;16.716;2022-09-12T06:14:07;11.30;;;9.10;;
48554;SDS011;34336;48.270;16.716;2022-09-12T06:16:35;9.77;;;8.52;;
48554;SDS011;34336;48.270;16.716;2022-09-12T06:19:04;9.95;;;8.27;;
48554;SDS011;34336;48.270;16.716;2022-09-12T06:21:32;10.68;;;8.13;;
48554;SDS011;34336;48.270;16.716;2022-09-12T06:24:00;9.52;;;8.50;;
48554;SDS011;34336;48.270;16.716;2022-09-12T06:26:27;8.18;;;7.38;;
48554;SDS011;34336;48.270;16.716;2022-09-12T06:28:55;9.35;;;7.85;;
48554;SDS011;34336;48.270;16.716;2022-09-12T06:31:25;9.27;;;7.05;;
48554;SDS011;34336;48.270;16.716;2022-09-12T06:33:58;10.88;;;7.90;;
48554;SDS011;34336;48.270;16.716;2022-09-12T06:36:27;8.40;;;7.00;;
48554;SDS011;34336;48.270;16.716;2022-09-12T06:38:59;9.82;;;7.13;;
48554;SDS011;34336;48.270;16.716;2022-09-12T06:43:56;9.35;;;7.40;;
48554;SDS011;34336;48.270;16.716;2022-09-12T06:46:25;8.75;;;7.50;;
48554;SDS011;34336;48.270;16.716;2022-09-12T06:48:54;8.65;;;7.72;;
48554;SDS011;34336;48.270;16.716;2022-09-12T06:51:21;10.60;;;7.65;;
48554;SDS011;34336;48.270;16.716;2022-09-12T06:53:48;9.82;;;8.10;;
48554;SDS011;34336;48.270;16.716;2022-09-12T06:56:16;12.13;;;8.25;;
48554;SDS011;34336;48.270;16.716;2022-09-12T06:58:45;9.63;;;8.02;;
48554;SDS011;34336;48.270;16.716;2022-09-12T07:01:14;11.95;;;8.32;;
48554;SDS011;34336;48.270;16.716;2022-09-12T07:03:46;10.30;;;8.60;;
48554;SDS011;34336;48.270;16.716;2022-09-12T07:06:15;10.48;;;8.88;;
48554;SDS011;34336;48.270;16.716;2022-09-12T07:08:43;9.40;;;7.75;;
48554;SDS011;34336;48.270;16.716;2022-09-12T07:11:15;9.95;;;8.73;;
48554;SDS011;34336;48.270;16.716;2022-09-12T07:13:48;9.45;;;8.43;;
48554;SDS011;34336;48.270;16.716;2022-09-12T07:16:16;9.85;;;7.65;;
48554;SDS011;34336;48.270;16.716;2022-09-12T07:18:51;8.98;;;7.55;;
48554;SDS011;34336;48.270;16.716;2022-09-12T07:21:23;8.00;;;7.15;;
48554;SDS011;34336;48.270;16.716;2022-09-12T07:23:50;9.38;;;6.88;;
48554;SDS011;34336;48.270;16.716;2022-09-12T07:26:18;10.73;;;6.68;;
48554;SDS011;34336;48.270;16.716;2022-09-12T07:28:48;10.13;;;6.95;;
48554;SDS011;34336;48.270;16.716;2022-09-12T07:31:18;9.85;;;6.50;;
48554;SDS011;34336;48.270;16.716;2022-09-12T07:33:45;7.85;;;6.85;;
48554;SDS011;34336;48.270;16.716;2022-09-12T07:36:19;7.57;;;6.28;;
48554;SDS011;34336;48.270;16.716;2022-09-12T07:38:52;8.77;;;6.75;;
48554;SDS011;34336;48.270;16.716;2022-09-12T07:41:26;6.95;;;6.25;;
48554;SDS011;34336;48.270;16.716;2022-09-12T07:43:55;7.20;;;6.38;;
48554;SDS011;34336;48.270;16.716;2022-09-12T07:46:24;10.30;;;6.82;;
48554;SDS011;34336;48.270;16.716;2022-09-12T07:48:52;9.18;;;6.75;;
48554;SDS011;34336;48.270;16.716;2022-09-12T07:51:20;7.35;;;6.50;;
48554;SDS011;34336;48.270;16.716;2022-09-12T07:53:48;9.10;;;6.85;;
48554;SDS011;34336;48.270;16.716;2022-09-12T07:56:17;7.88;;;6.93;;
48554;SDS011;34336;48.270;16.716;2022-09-12T07:58:45;8.40;;;6.57;;
48554;SDS011;34336;48.270;16.716;2022-09-12T08:01:19;9.32;;;7.90;;
48554;SDS011;34336;48.270;16.716;2022-09-12T08:03:49;7.70;;;6.72;;
48554;SDS011;34336;48.270;16.716;2022-09-12T08:06:21;9.52;;;6.63;;
48554;SDS011;34336;48.270;16.716;2022-09-12T08:08:52;9.88;;;7.53;;
48554;SDS011;34336;48.270;16.716;2022-09-12T08:11:20;9.32;;;6.50;;
48554;SDS011;34336;48.270;16.716;2022-09-12T08:13:48;7.72;;;6.45;;
48554;SDS011;34336;48.270;16.716;2022-09-12T08:16:21;7.68;;;6.63;;
48554;SDS011;34336;48.270;16.716;2022-09-12T08:18:51;9.90;;;7.45;;
48554;SDS011;34336;48.270;16.716;2022-09-12T08:21:19;9.13;;;6.55;;
48554;SDS011;34336;48.270;16.716;2022-09-12T08:23:54;8.85;;;6.68;;
48554;SDS011;34336;48.270;16.716;2022-09-12T08:26:28;8.57;;;6.63;;
48554;SDS011;34336;48.270;16.716;2022-09-12T08:28:56;8.18;;;6.63;;
48554;SDS011;34336;48.270;16.716;2022-09-12T08:31:23;6.78;;;6.05;;
48554;SDS011;34336;48.270;16.716;2022-09-12T08:33:54;7.00;;;6.00;;
48554;SDS011;34336;48.270;16.716;2022-09-12T08:36:23;8.40;;;6.75;;
48554;SDS011;34336;48.270;16.716;2022-09-12T08:38:55;8.80;;;6.25;;
48554;SDS011;34336;48.270;16.716;2022-09-12T08:46:36;9.30;;;6.50;;
48554;SDS011;34336;48.270;16.716;2022-09-12T08:49:12;8.02;;;5.78;;
48554;SDS011;34336;48.270;16.716;2022-09-12T08:51:49;7.68;;;5.60;;
48554;SDS011;34336;48.270;16.716;2022-09-12T08:54:19;5.97;;;5.30;;
48554;SDS011;34336;48.270;16.716;2022-09-12T08:56:50;7.28;;;5.45;;
48554;SDS011;34336;48.270;16.716;2022-09-12T08:59:23;5.97;;;5.22;;
48554;SDS011;34336;48.270;16.716;2022-09-12T09:01:50;6.82;;;5.00;;
48554;SDS011;34336;48.270;16.716;2022-09-12T09:13:11;5.22;;;4.60;;
48554;SDS011;34336;48.270;16.716;2022-09-12T09:16:30;5.63;;;4.70;;
48554;SDS011;34336;48.270;16.716;2022-09-12T09:19:02;5.90;;;4.43;;
48554;SDS011;34336;48.270;16.716;2022-09-12T09:21:41;5.22;;;4.72;;
48554;SDS011;34336;48.270;16.716;2022-09-12T09:24:16;5.03;;;4.50;;
48554;SDS011;34336;48.270;16.716;2022-09-12T09:26:52;5.85;;;4.40;;
48554;SDS011;34336;48.270;16.716;2022-09-12T09:29:21;5.55;;;5.05;;
48554;SDS011;34336;48.270;16.716;2022-09-12T09:31:53;6.53;;;4.65;;
48554;SDS011;34336;48.270;16.716;2022-09-12T09:34:25;5.22;;;4.18;;
48554;SDS011;34336;48.270;16.716;2022-09-12T09:37:17;5.78;;;4.78;;
48554;SDS011;34336;48.270;16.716;2022-09-12T09:42:28;5.97;;;5.13;;
48554;SDS011;34336;48.270;16.716;2022-09-12T09:45:10;5.78;;;4.90;;
48554;SDS011;34336;48.270;16.716;2022-09-12T09:47:44;5.47;;;4.18;;
48554;SDS011;34336;48.270;16.716;2022-09-12T09:50:17;3.92;;;3.50;;
48554;SDS011;34336;48.270;16.716;2022-09-12T09:52:44;4.75;;;4.15;;
48554;SDS011;34336;48.270;16.716;2022-09-12T09:55:16;5.10;;;4.50;;
48554;SDS011;34336;48.270;16.716;2022-09-12T09:57:47;4.90;;;4.40;;
48554;SDS011;34336;48.270;16.716;2022-09-12T10:05:31;4.20;;;3.63;;
48554;SDS011;34336;48.270;16.716;2022-09-12T10:08:01;4.18;;;3.70;;
48554;SDS011;34336;48.270;16.716;2022-09-12T10:10:29;4.90;;;4.00;;
48554;SDS011;34336;48.270;16.716;2022-09-12T10:13:06;4.78;;;4.00;;
48554;SDS011;34336;48.270;16.716;2022-09-12T10:15:35;5.25;;;4.10;;
48554;SDS011;34336;48.270;16.716;2022-09-12T10:18:03;5.30;;;4.28;;
48554;SDS011;34336;48.270;16.716;2022-09-12T10:20:38;5.25;;;4.70;;
48554;SDS011;34336;48.270;16.716;2022-09-12T10:25:59;5.10;;;3.63;;
48554;SDS011;34336;48.270;16.716;2022-09-12T10:31:09;4.30;;;3.90;;
48554;SDS011;34336;48.270;16.716;2022-09-12T10:33:42;4.88;;;4.28;;
48554;SDS011;34336;48.270;16.716;2022-09-12T10:38:40;4.45;;;4.05;;
48554;SDS011;34336;48.270;16.716;2022-09-12T10:41:16;5.03;;;4.40;;
48554;SDS011;34336;48.270;16.716;2022-09-12T10:43:44;6.80;;;4.43;;
48554;SDS011;34336;48.270;16.716;2022-09-12T10:48:41;4.82;;;3.70;;
48554;SDS011;34336;48.270;16.716;2022-09-12T10:51:14;2.95;;;2.65;;
48554;SDS011;34336;48.270;16.716;2022-09-12T10:53:52;2.95;;;2.65;;
48554;SDS011;34336;48.270;16.716;2022-09-12T10:56:31;3.75;;;3.10;;
48554;SDS011;34336;48.270;16.716;2022-09-12T11:27:11;5.03;;;4.38;;
48554;SDS011;34336;48.270;16.716;2022-09-12T11:30:12;5.18;;;4.68;;
48554;SDS011;34336;48.270;16.716;2022-09-12T11:35:31;5.82;;;4.38;;
48554;SDS011;34336;48.270;16.716;2022-09-12T11:38:09;4.72;;;3.88;;
48554;SDS011;34336;48.270;16.716;2022-09-12T11:40:47;3.90;;;3.50;;
48554;SDS011;34336;48.270;16.716;2022-09-12T11:46:18;4.90;;;4.20;;
48554;SDS011;34336;48.270;16.716;2022-09-12T12:05:21;3.47;;;3.00;;
48554;SDS011;34336;48.270;16.716;2022-09-12T12:08:08;5.15;;;3.47;;
48554;SDS011;34336;48.270;16.716;2022-09-12T12:10:40;3.90;;;3.20;;
48554;SDS011;34336;48.270;16.716;2022-09-12T12:13:17;3.88;;;3.22;;
48554;SDS011;34336;48.270;16.716;2022-09-12T12:16:06;4.25;;;2.92;;
48554;SDS011;34336;48.270;16.716;2022-09-12T12:18:38;3.28;;;2.70;;
48554;SDS011;34336;48.270;16.716;2022-09-12T12:24:10;3.17;;;2.77;;
48554;SDS011;34336;48.270;16.716;2022-09-12T12:26:42;3.10;;;2.80;;
48554;SDS011;34336;48.270;16.716;2022-09-12T12:34:38;5.43;;;3.05;;
48554;SDS011;34336;48.270;16.716;2022-09-12T12:50:33;3.50;;;2.97;;
48554;SDS011;34336;48.270;16.716;2022-09-12T12:53:01;3.15;;;2.85;;
48554;SDS011;34336;48.270;16.716;2022-09-12T12:58:01;4.25;;;2.75;;
48554;SDS011;34336;48.270;16.716;2022-09-12T13:00:30;3.25;;;2.88;;
48554;SDS011;34336;48.270;16.716;2022-09-12T13:05:28;3.13;;;2.50;;
48554;SDS011;34336;48.270;16.716;2022-09-12T13:08:07;3.10;;;2.40;;
48554;SDS011;34336;48.270;16.716;2022-09-12T13:10:50;3.80;;;2.58;;
48554;SDS011;34336;48.270;16.716;2022-09-12T13:13:22;4.13;;;2.15;;
48554;SDS011;34336;48.270;16.716;2022-09-12T13:15:54;3.17;;;1.98;;
48554;SDS011;34336;48.270;16.716;2022-09-12T13:18:54;3.38;;;2.70;;
48554;SDS011;34336;48.270;16.716;2022-09-12T13:21:15;3.78;;;2.60;;
48554;SDS011;34336;48.270;16.716;2022-09-12T13:26:33;3.88;;;2.50;;
48554;SDS011;34336;48.270;16.716;2022-09-12T13:29:09;4.97;;;2.72;;
48554;SDS011;34336;48.270;16.716;2022-09-12T13:31:36;4.07;;;2.70;;
48554;SDS011;34336;48.270;16.716;2022-09-12T13:34:04;3.75;;;2.58;;
48554;SDS011;34336;48.270;16.716;2022-09-12T13:39:36;2.35;;;2.10;;
48554;SDS011;34336;48.270;16.716;2022-09-12T13:47:35;2.05;;;1.83;;
48554;SDS011;34336;48.270;16.716;2022-09-12T13:50:04;2.10;;;1.90;;
48554;SDS011;34336;48.270;16.716;2022-09-12T13:52:33;2.03;;;1.73;;
48554;SDS011;34336;48.270;16.716;2022-09-12T13:55:07;1.88;;;1.70;;
48554;SDS011;34336;48.270;16.716;2022-09-12T13:57:54;4.13;;;2.33;;
48554;SDS011;34336;48.270;16.716;2022-09-12T14:00:32;2.83;;;2.10;;
48554;SDS011;34336;48.270;16.716;2022-09-12T14:03:00;2.40;;;2.20;;
48554;SDS011;34336;48.270;16.716;2022-09-12T14:05:50;2.35;;;1.90;;
48554;SDS011;34336;48.270;16.716;2022-09-12T14:08:22;2.53;;;2.00;;
48554;SDS011;34336;48.270;16.716;2022-09-12T14:10:49;2.40;;;2.10;;
48554;SDS011;34336;48.270;16.716;2022-09-12T14:13:20;2.97;;;2.13;;
48554;SDS011;34336;48.270;16.716;2022-09-12T14:15:50;4.03;;;2.70;;
48554;SDS011;34336;48.270;16.716;2022-09-12T14:18:26;4.13;;;2.30;;
48554;SDS011;34336;48.270;16.716;2022-09-12T14:21:01;4.35;;;2.10;;
48554;SDS011;34336;48.270;16.716;2022-09-12T14:23:41;2.80;;;2.00;;
48554;SDS011;34336;48.270;16.716;2022-09-12T14:26:10;2.92;;;2.33;;
48554;SDS011;34336;48.270;16.716;2022-09-12T14:28:39;3.65;;;2.65;;
48554;SDS011;34336;48.270;16.716;2022-09-12T14:38:42;4.45;;;2.58;;
48554;SDS011;34336;48.270;16.716;2022-09-12T14:41:12;2.85;;;2.33;;
48554;SDS011;34336;48.270;16.716;2022-09-12T14:43:46;3.42;;;2.40;;
48554;SDS011;34336;48.270;16.716;2022-09-12T14:46:26;3.03;;;2.72;;
48554;SDS011;34336;48.270;16.716;2022-09-12T14:48:59;3.78;;;2.45;;
48554;SDS011;34336;48.270;16.716;2022-09-12T14:51:30;3.30;;;2.70;;
48554;SDS011;34336;48.270;16.716;2022-09-12T14:53:59;3.30;;;3.00;;
48554;SDS011;34336;48.270;16.716;2022-09-12T14:56:36;3.47;;;2.70;;
48554;SDS011;34336;48.270;16.716;2022-09-12T15:04:43;3.13;;;2.83;;
48554;SDS011;34336;48.270;16.716;2022-09-12T15:07:13;3.55;;;2.72;;
48554;SDS011;34336;48.270;16.716;2022-09-12T15:09:42;3.28;;;2.90;;
48554;SDS011;34336;48.270;16.716;2022-09-12T15:12:12;4.55;;;3.40;;
48554;SDS011;34336;48.270;16.716;2022-09-12T15:14:39;3.67;;;3.10;;
48554;SDS011;34336;48.270;16.716;2022-09-12T15:17:06;4.55;;;3.20;;
48554;SDS011;34336;48.270;16.716;2022-09-12T15:19:33;4.13;;;3.13;;
48554;SDS011;34336;48.270;16.716;2022-09-12T15:21:59;3.83;;;3.45;;
48554;SDS011;34336;48.270;16.716;2022-09-12T15:24:26;3.40;;;3.10;;
48554;SDS011;34336;48.270;16.716;2022-09-12T15:26:53;3.28;;;2.97;;
48554;SDS011;34336;48.270;16.716;2022-09-12T15:29:20;3.50;;;3.20;;
48554;SDS011;34336;48.270;16.716;2022-09-12T15:31:46;3.90;;;3.50;;
48554;SDS011;34336;48.270;16.716;2022-09-12T15:34:17;3.40;;;3.10;;
48554;SDS011;34336;48.270;16.716;2022-09-12T15:36:45;3.75;;;3.30;;
48554;SDS011;34336;48.270;16.716;2022-09-12T15:39:11;3.33;;;2.90;;
48554;SDS011;34336;48.270;16.716;2022-09-12T15:41:38;3.42;;;3.13;;
48554;SDS011;34336;48.270;16.716;2022-09-12T15:44:06;3.55;;;3.25;;
48554;SDS011;34336;48.270;16.716;2022-09-12T15:46:36;3.43;;;3.13;;
48554;SDS011;34336;48.270;16.716;2022-09-12T15:49:03;3.90;;;3.22;;
48554;SDS011;34336;48.270;16.716;2022-09-12T15:51:30;3.42;;;3.10;;
48554;SDS011;34336;48.270;16.716;2022-09-12T15:54:03;3.60;;;3.30;;
48554;SDS011;34336;48.270;16.716;2022-09-12T15:56:30;4.47;;;3.30;;
48554;SDS011;34336;48.270;16.716;2022-09-12T15:58:56;3.00;;;2.70;;
48554;SDS011;34336;48.270;16.716;2022-09-12T16:01:25;3.13;;;2.65;;
48554;SDS011;34336;48.270;16.716;2022-09-12T16:03:53;2.80;;;2.50;;
48554;SDS011;34336;48.270;16.716;2022-09-12T16:06:21;3.50;;;2.60;;
48554;SDS011;34336;48.270;16.716;2022-09-12T16:08:48;3.15;;;2.85;;
48554;SDS011;34336;48.270;16.716;2022-09-12T16:11:20;3.13;;;2.83;;
48554;SDS011;34336;48.270;16.716;2022-09-12T16:13:52;3.10;;;2.80;;
48554;SDS011;34336;48.270;16.716;2022-09-12T16:16:20;3.43;;;2.97;;
48554;SDS011;34336;48.270;16.716;2022-09-12T16:18:48;3.03;;;2.50;;
48554;SDS011;34336;48.270;16.716;2022-09-12T16:21:15;3.08;;;2.78;;
48554;SDS011;34336;48.270;16.716;2022-09-12T16:23:45;5.40;;;3.28;;
48554;SDS011;34336;48.270;16.716;2022-09-12T16:26:12;3.20;;;2.90;;
48554;SDS011;34336;48.270;16.716;2022-09-12T16:28:39;3.88;;;3.00;;
48554;SDS011;34336;48.270;16.716;2022-09-12T16:31:07;2.90;;;2.60;;
48554;SDS011;34336;48.270;16.716;2022-09-12T16:33:36;3.00;;;2.70;;
48554;SDS011;34336;48.270;16.716;2022-09-12T16:36:04;3.05;;;2.55;;
48554;SDS011;34336;48.270;16.716;2022-09-12T16:38:32;4.43;;;3.13;;
48554;SDS011;34336;48.270;16.716;2022-09-12T16:41:01;3.38;;;2.63;;
48554;SDS011;34336;48.270;16.716;2022-09-12T16:43:30;3.72;;;2.60;;
48554;SDS011;34336;48.270;16.716;2022-09-12T16:45:59;3.80;;;2.80;;
48554;SDS011;34336;48.270;16.716;2022-09-12T16:48:30;3.22;;;2.92;;
48554;SDS011;34336;48.270;16.716;2022-09-12T16:51:00;3.28;;;2.85;;
48554;SDS011;34336;48.270;16.716;2022-09-12T16:53:29;3.08;;;2.80;;
48554;SDS011;34336;48.270;16.716;2022-09-12T16:55:57;3.33;;;2.95;;
48554;SDS011;34336;48.270;16.716;2022-09-12T16:58:24;6.18;;;2.65;;
48554;SDS011;34336;48.270;16.716;2022-09-12T17:01:04;3.25;;;2.88;;
48554;SDS011;34336;48.270;16.716;2022-09-12T17:03:35;3.92;;;2.80;;
48554;SDS011;34336;48.270;16.716;2022-09-12T17:06:03;4.75;;;2.90;;
48554;SDS011;34336;48.270;16.716;2022-09-12T17:08:41;3.97;;;2.90;;
48554;SDS011;34336;48.270;16.716;2022-09-12T17:11:11;5.13;;;2.88;;
48554;SDS011;34336;48.270;16.716;2022-09-12T17:13:44;3.28;;;2.65;;
48554;SDS011;34336;48.270;16.716;2022-09-12T17:16:30;3.17;;;2.80;;
48554;SDS011;34336;48.270;16.716;2022-09-12T17:18:58;4.20;;;3.08;;
48554;SDS011;34336;48.270;16.716;2022-09-12T17:21:25;3.03;;;2.72;;
48554;SDS011;34336;48.270;16.716;2022-09-12T17:23:51;3.35;;;2.92;;
48554;SDS011;34336;48.270;16.716;2022-09-12T17:26:18;5.55;;;2.85;;
48554;SDS011;34336;48.270;16.716;2022-09-12T17:28:46;3.58;;;2.78;;
48554;SDS011;34336;48.270;16.716;2022-09-12T17:31:13;4.18;;;2.72;;
48554;SDS011;34336;48.270;16.716;2022-09-12T17:33:40;3.45;;;2.92;;
48554;SDS011;34336;48.270;16.716;2022-09-12T17:36:09;3.10;;;2.75;;
48554;SDS011;34336;48.270;16.716;2022-09-12T17:38:40;3.78;;;2.80;;
48554;SDS011;34336;48.270;16.716;2022-09-12T17:41:09;3.45;;;2.85;;
48554;SDS011;34336;48.270;16.716;2022-09-12T17:43:44;5.55;;;2.67;;
48554;SDS011;34336;48.270;16.716;2022-09-12T17:46:12;2.53;;;2.33;;
48554;SDS011;34336;48.270;16.716;2022-09-12T17:48:39;4.57;;;3.10;;
48554;SDS011;34336;48.270;16.716;2022-09-12T17:51:11;5.53;;;2.90;;
48554;SDS011;34336;48.270;16.716;2022-09-12T17:53:41;3.40;;;2.83;;
48554;SDS011;34336;48.270;16.716;2022-09-12T17:56:09;4.82;;;2.97;;
48554;SDS011;34336;48.270;16.716;2022-09-12T17:58:36;5.40;;;3.17;;
48554;SDS011;34336;48.270;16.716;2022-09-12T18:01:09;5.13;;;3.30;;